sensor_id;sensor_type;location;lat;lon;timestamp;pressure;altitude;pressure_sealevel;temperature;humidity
39773;BME280;25451;51.960;6.250;2023-01-25T00:01:38;103614.06;;;2.39;76.48
39773;BME280;25451;51.960;6.250;2023-01-25T00:04:04;103612.47;;;2.36;76.80
39773;BME280;25451;51.960;6.250;2023-01-25T00:06:29;103617.56;;;2.41;76.94
39773;BME280;25451;51.960;6.250;2023-01-25T00:08:54;103617.31;;;2.44;76.65
39773;BME280;25451;51.960;6.250;2023-01-25T00:11:19;103614.31;;;2.47;76.80
39773;BME280;25451;51.960;6.250;2023-01-25T00:13:45;103608.88;;;2.47;76.73
39773;BME280;25451;51.960;6.250;2023-01-25T00:16:10;103610.13;;;2.43;76.46
39773;BME280;25451;51.960;6.250;2023-01-25T00:18:36;103608.41;;;2.42;76.64
39773;BME280;25451;51.960;6.250;2023-01-25T00:21:21;103614.69;;;2.42;76.60
39773;BME280;25451;51.960;6.250;2023-01-25T00:23:48;103609.50;;;2.39;76.66
39773;BME280;25451;51.960;6.250;2023-01-25T00:26:13;103598.47;;;2.41;76.62
39773;BME280;25451;51.960;6.250;2023-01-25T00:28:39;103603.69;;;2.44;76.65
39773;BME280;25451;51.960;6.250;2023-01-25T00:31:05;103595.00;;;2.39;76.53
39773;BME280;25451;51.960;6.250;2023-01-25T00:36:32;103602.06;;;2.41;76.75
39773;BME280;25451;51.960;6.250;2023-01-25T00:38:59;103589.69;;;2.37;76.68
39773;BME280;25451;51.960;6.250;2023-01-25T00:41:24;103593.28;;;2.38;76.34
39773;BME280;25451;51.960;6.250;2023-01-25T00:43:50;103587.09;;;2.36;76.71
39773;BME280;25451;51.960;6.250;2023-01-25T00:46:16;103590.56;;;2.38;76.56
39773;BME280;25451;51.960;6.250;2023-01-25T00:48:42;103586.06;;;2.37;76.71
39773;BME280;25451;51.960;6.250;2023-01-25T00:51:07;103578.91;;;2.36;76.56
39773;BME280;25451;51.960;6.250;2023-01-25T00:53:33;103587.94;;;2.36;76.49
39773;BME280;25451;51.960;6.250;2023-01-25T00:55:59;103578.16;;;2.34;76.57
39773;BME280;25451;51.960;6.250;2023-01-25T00:58:25;103579.16;;;2.33;76.86
39773;BME280;25451;51.960;6.250;2023-01-25T01:00:53;103586.22;;;2.35;76.78
39773;BME280;25451;51.960;6.250;2023-01-25T01:03:19;103578.16;;;2.34;76.92
39773;BME280;25451;51.960;6.250;2023-01-25T01:05:45;103580.63;;;2.37;76.66
39773;BME280;25451;51.960;6.250;2023-01-25T01:08:13;103574.44;;;2.35;76.84
39773;BME280;25451;51.960;6.250;2023-01-25T01:10:38;103575.91;;;2.39;76.59
39773;BME280;25451;51.960;6.250;2023-01-25T01:13:05;103586.97;;;2.37;76.48
39773;BME280;25451;51.960;6.250;2023-01-25T01:15:30;103580.16;;;2.32;76.67
39773;BME280;25451;51.960;6.250;2023-01-25T01:17:56;103579.88;;;2.35;76.66
39773;BME280;25451;51.960;6.250;2023-01-25T01:20:21;103580.16;;;2.32;76.79
39773;BME280;25451;51.960;6.250;2023-01-25T01:22:46;103581.00;;;2.32;76.58
39773;BME280;25451;51.960;6.250;2023-01-25T01:25:12;103573.22;;;2.28;76.91
39773;BME280;25451;51.960;6.250;2023-01-25T01:27:38;103586.44;;;2.32;76.77
39773;BME280;25451;51.960;6.250;2023-01-25T01:30:04;103580.38;;;2.29;76.76
39773;BME280;25451;51.960;6.250;2023-01-25T01:32:29;103583.84;;;2.31;76.68
39773;BME280;25451;51.960;6.250;2023-01-25T01:34:55;103581.88;;;2.33;76.84
39773;BME280;25451;51.960;6.250;2023-01-25T01:37:20;103570.34;;;2.29;76.49
39773;BME280;25451;51.960;6.250;2023-01-25T01:39:45;103576.41;;;2.33;76.88
39773;BME280;25451;51.960;6.250;2023-01-25T01:42:11;103572.72;;;2.34;76.58
39773;BME280;25451;51.960;6.250;2023-01-25T01:44:50;103576.41;;;2.33;76.56
39773;BME280;25451;51.960;6.250;2023-01-25T01:47:26;103572.72;;;2.34;76.65
39773;BME280;25451;51.960;6.250;2023-01-25T01:49:56;103577.28;;;2.33;76.72
39773;BME280;25451;51.960;6.250;2023-01-25T01:52:30;103568.59;;;2.28;76.52
39773;BME280;25451;51.960;6.250;2023-01-25T01:57:56;103574.94;;;2.29;76.78
39773;BME280;25451;51.960;6.250;2023-01-25T02:00:26;103570.22;;;2.31;76.91
39773;BME280;25451;51.960;6.250;2023-01-25T02:02:53;103572.19;;;2.29;77.10
39773;BME280;25451;51.960;6.250;2023-01-25T02:05:47;103567.63;;;2.29;76.75
39773;BME280;25451;51.960;6.250;2023-01-25T02:08:15;103566.63;;;2.30;76.81
39773;BME280;25451;51.960;6.250;2023-01-25T02:10:41;103571.09;;;2.31;77.03
39773;BME280;25451;51.960;6.250;2023-01-25T02:13:08;103556.88;;;2.28;76.74
39773;BME280;25451;51.960;6.250;2023-01-25T02:15:42;103555.84;;;2.29;77.00
39773;BME280;25451;51.960;6.250;2023-01-25T02:18:10;103562.03;;;2.31;76.71
39773;BME280;25451;51.960;6.250;2023-01-25T02:20:45;103560.06;;;2.33;76.59
39773;BME280;25451;51.960;6.250;2023-01-25T02:23:26;103566.53;;;2.32;76.73
39773;BME280;25451;51.960;6.250;2023-01-25T02:25:55;103556.59;;;2.31;76.65
39773;BME280;25451;51.960;6.250;2023-01-25T02:28:26;103555.63;;;2.32;76.73
39773;BME280;25451;51.960;6.250;2023-01-25T02:30:54;103558.34;;;2.32;76.70
39773;BME280;25451;51.960;6.250;2023-01-25T02:33:22;103548.41;;;2.31;76.68
39773;BME280;25451;51.960;6.250;2023-01-25T02:35:53;103547.44;;;2.32;76.77
39773;BME280;25451;51.960;6.250;2023-01-25T02:38:20;103543.97;;;2.30;76.70
39773;BME280;25451;51.960;6.250;2023-01-25T02:41:03;103542.09;;;2.30;76.64
39773;BME280;25451;51.960;6.250;2023-01-25T02:43:33;103540.50;;;2.28;76.93
39773;BME280;25451;51.960;6.250;2023-01-25T02:46:20;103536.66;;;2.30;76.90
39773;BME280;25451;51.960;6.250;2023-01-25T02:48:46;103537.66;;;2.29;76.63
39773;BME280;25451;51.960;6.250;2023-01-25T02:51:12;103529.84;;;2.25;76.72
39773;BME280;25451;51.960;6.250;2023-01-25T02:53:37;103540.50;;;2.28;77.00
39773;BME280;25451;51.960;6.250;2023-01-25T02:56:03;103531.47;;;2.27;76.80
39773;BME280;25451;51.960;6.250;2023-01-25T02:58:28;103532.34;;;2.28;76.85
39773;BME280;25451;51.960;6.250;2023-01-25T03:00:54;103526.16;;;2.26;76.75
39773;BME280;25451;51.960;6.250;2023-01-25T03:03:20;103534.19;;;2.27;76.82
39773;BME280;25451;51.960;6.250;2023-01-25T03:05:45;103530.59;;;2.27;76.68
39773;BME280;25451;51.960;6.250;2023-01-25T03:08:11;103520.19;;;2.21;76.41
39773;BME280;25451;51.960;6.250;2023-01-25T03:10:36;103524.53;;;2.23;76.88
39773;BME280;25451;51.960;6.250;2023-01-25T03:13:01;103525.50;;;2.22;76.70
39773;BME280;25451;51.960;6.250;2023-01-25T03:15:27;103530.84;;;2.24;76.41
39773;BME280;25451;51.960;6.250;2023-01-25T03:17:52;103522.69;;;2.24;76.75
39773;BME280;25451;51.960;6.250;2023-01-25T03:20:17;103524.66;;;2.22;76.64
39773;BME280;25451;51.960;6.250;2023-01-25T03:22:43;103524.66;;;2.22;76.62
39773;BME280;25451;51.960;6.250;2023-01-25T03:25:08;103505.06;;;2.17;77.00
39773;BME280;25451;51.960;6.250;2023-01-25T03:27:33;103508.53;;;2.19;76.97
39773;BME280;25451;51.960;6.250;2023-01-25T03:29:59;103505.06;;;2.17;77.07
39773;BME280;25451;51.960;6.250;2023-01-25T03:32:24;103508.91;;;2.14;77.03
39773;BME280;25451;51.960;6.250;2023-01-25T03:34:49;103503.38;;;2.16;76.85
39773;BME280;25451;51.960;6.250;2023-01-25T03:37:15;103495.28;;;2.14;76.91
39773;BME280;25451;51.960;6.250;2023-01-25T03:39:40;103486.38;;;2.12;76.85
39773;BME280;25451;51.960;6.250;2023-01-25T03:42:05;103487.13;;;2.14;77.15
39773;BME280;25451;51.960;6.250;2023-01-25T03:44:31;103490.72;;;2.15;76.78
39773;BME280;25451;51.960;6.250;2023-01-25T03:46:56;103490.94;;;2.12;76.89
39773;BME280;25451;51.960;6.250;2023-01-25T03:49:22;103487.25;;;2.13;77.14
39773;BME280;25451;51.960;6.250;2023-01-25T03:51:47;103489.97;;;2.13;76.85
39773;BME280;25451;51.960;6.250;2023-01-25T03:54:12;103494.41;;;2.14;76.96
39773;BME280;25451;51.960;6.250;2023-01-25T03:56:38;103487.47;;;2.10;77.14
39773;BME280;25451;51.960;6.250;2023-01-25T03:59:03;103492.69;;;2.13;76.96
39773;BME280;25451;51.960;6.250;2023-01-25T04:01:28;103481.78;;;2.13;76.94
39773;BME280;25451;51.960;6.250;2023-01-25T04:03:54;103480.31;;;2.09;76.75
39773;BME280;25451;51.960;6.250;2023-01-25T04:06:19;103486.50;;;2.11;76.88
39773;BME280;25451;51.960;6.250;2023-01-25T04:08:44;103472.50;;;2.04;76.70
39773;BME280;25451;51.960;6.250;2023-01-25T04:11:10;103481.06;;;2.11;76.65
39773;BME280;25451;51.960;6.250;2023-01-25T04:13:36;103472.28;;;2.07;76.84
39773;BME280;25451;51.960;6.250;2023-01-25T04:16:06;103482.91;;;2.10;77.05
39773;BME280;25451;51.960;6.250;2023-01-25T04:18:32;103479.31;;;2.10;77.08
39773;BME280;25451;51.960;6.250;2023-01-25T04:20:58;103476.59;;;2.10;76.61
39773;BME280;25451;51.960;6.250;2023-01-25T04:23:24;103468.69;;;2.07;76.99
39773;BME280;25451;51.960;6.250;2023-01-25T04:25:58;103472.16;;;2.09;76.91
39773;BME280;25451;51.960;6.250;2023-01-25T04:28:24;103461.63;;;2.04;77.16
39773;BME280;25451;51.960;6.250;2023-01-25T04:30:50;103456.66;;;1.98;76.75
39773;BME280;25451;51.960;6.250;2023-01-25T04:33:16;103457.28;;;2.02;76.61
39773;BME280;25451;51.960;6.250;2023-01-25T04:35:42;103454.69;;;2.00;76.96
39773;BME280;25451;51.960;6.250;2023-01-25T04:38:08;103459.91;;;2.03;76.84
39773;BME280;25451;51.960;6.250;2023-01-25T04:40:34;103447.75;;;1.96;76.79
39773;BME280;25451;51.960;6.250;2023-01-25T04:42:59;103463.59;;;2.02;76.71
39773;BME280;25451;51.960;6.250;2023-01-25T04:45:24;103445.63;;;2.00;76.95
39773;BME280;25451;51.960;6.250;2023-01-25T04:47:55;103445.78;;;1.98;76.72
39773;BME280;25451;51.960;6.250;2023-01-25T04:50:21;103442.19;;;1.98;76.98
39773;BME280;25451;51.960;6.250;2023-01-25T04:52:46;103450.13;;;2.01;76.72
39773;BME280;25451;51.960;6.250;2023-01-25T04:55:11;103442.19;;;1.98;77.05
39773;BME280;25451;51.960;6.250;2023-01-25T04:57:37;103439.34;;;1.99;76.80
39773;BME280;25451;51.960;6.250;2023-01-25T05:00:02;103439.44;;;1.98;76.82
39773;BME280;25451;51.960;6.250;2023-01-25T05:02:28;103435.16;;;1.95;76.92
39773;BME280;25451;51.960;6.250;2023-01-25T05:04:53;103439.44;;;1.98;76.80
39773;BME280;25451;51.960;6.250;2023-01-25T05:07:18;103434.13;;;1.96;76.58
39773;BME280;25451;51.960;6.250;2023-01-25T05:09:44;103423.38;;;1.95;76.91
39773;BME280;25451;51.960;6.250;2023-01-25T05:12:09;103433.16;;;1.97;76.76
39773;BME280;25451;51.960;6.250;2023-01-25T05:14:38;103441.44;;;1.96;76.93
39773;BME280;25451;51.960;6.250;2023-01-25T05:17:04;103433.53;;;1.93;76.56
39773;BME280;25451;51.960;6.250;2023-01-25T05:19:30;103436.00;;;1.96;76.87
39773;BME280;25451;51.960;6.250;2023-01-25T05:21:55;103437.00;;;1.95;76.73
39773;BME280;25451;51.960;6.250;2023-01-25T05:24:27;103428.22;;;1.91;76.58
39773;BME280;25451;51.960;6.250;2023-01-25T05:26:53;103436.00;;;1.96;76.70
39773;BME280;25451;51.960;6.250;2023-01-25T05:31:57;103435.00;;;1.97;76.75
39773;BME280;25451;51.960;6.250;2023-01-25T05:34:22;103433.25;;;1.96;76.73
39773;BME280;25451;51.960;6.250;2023-01-25T05:36:48;103430.81;;;1.93;77.10
39773;BME280;25451;51.960;6.250;2023-01-25T05:39:13;103431.41;;;1.96;77.06
39773;BME280;25451;51.960;6.250;2023-01-25T05:41:38;103436.00;;;1.96;76.67
39773;BME280;25451;51.960;6.250;2023-01-25T05:44:04;103436.00;;;1.96;76.94
39773;BME280;25451;51.960;6.250;2023-01-25T05:46:29;103439.72;;;1.95;76.70
39773;BME280;25451;51.960;6.250;2023-01-25T05:48:54;103437.13;;;1.93;76.89
39773;BME280;25451;51.960;6.250;2023-01-25T05:51:20;103423.38;;;1.95;76.94
39773;BME280;25451;51.960;6.250;2023-01-25T05:53:45;103422.03;;;1.89;76.71
39773;BME280;25451;51.960;6.250;2023-01-25T05:56:10;103429.94;;;1.92;76.86
39773;BME280;25451;51.960;6.250;2023-01-25T05:58:36;103429.06;;;1.92;76.83
39773;BME280;25451;51.960;6.250;2023-01-25T06:01:04;103432.91;;;1.89;77.02
39773;BME280;25451;51.960;6.250;2023-01-25T06:03:29;103443.41;;;1.94;76.72
39773;BME280;25451;51.960;6.250;2023-01-25T06:05:55;103437.34;;;1.90;76.67
39773;BME280;25451;51.960;6.250;2023-01-25T06:08:21;103434.50;;;1.92;76.68
39773;BME280;25451;51.960;6.250;2023-01-25T06:10:46;103430.19;;;1.89;76.69
39773;BME280;25451;51.960;6.250;2023-01-25T06:13:12;103435.38;;;1.92;76.94
39773;BME280;25451;51.960;6.250;2023-01-25T06:15:37;103437.22;;;1.92;76.84
39773;BME280;25451;51.960;6.250;2023-01-25T06:18:02;103434.50;;;1.92;76.98
39773;BME280;25451;51.960;6.250;2023-01-25T06:20:28;103432.91;;;1.89;76.91
39773;BME280;25451;51.960;6.250;2023-01-25T06:22:53;103429.19;;;1.90;76.74
39773;BME280;25451;51.960;6.250;2023-01-25T06:25:18;103434.63;;;1.90;76.85
39773;BME280;25451;51.960;6.250;2023-01-25T06:27:43;103436.50;;;1.90;76.81
39773;BME280;25451;51.960;6.250;2023-01-25T06:30:09;103432.78;;;1.91;76.79
39773;BME280;25451;51.960;6.250;2023-01-25T06:32:35;103436.50;;;1.90;76.61
39773;BME280;25451;51.960;6.250;2023-01-25T06:35:01;103437.50;;;1.89;77.24
39773;BME280;25451;51.960;6.250;2023-01-25T06:37:26;103437.63;;;1.87;77.17
39773;BME280;25451;51.960;6.250;2023-01-25T06:39:52;103434.03;;;1.87;76.92
39773;BME280;25451;51.960;6.250;2023-01-25T06:42:18;103428.59;;;1.87;76.85
39773;BME280;25451;51.960;6.250;2023-01-25T06:44:43;103426.09;;;1.84;76.99
39773;BME280;25451;51.960;6.250;2023-01-25T06:47:08;103433.53;;;1.82;76.66
39773;BME280;25451;51.960;6.250;2023-01-25T06:49:34;103435.88;;;1.86;76.60
39773;BME280;25451;51.960;6.250;2023-01-25T06:51:59;103436.75;;;1.87;77.09
39773;BME280;25451;51.960;6.250;2023-01-25T06:54:25;103437.63;;;1.87;77.01
39773;BME280;25451;51.960;6.250;2023-01-25T06:56:51;103424.50;;;1.81;76.75
39773;BME280;25451;51.960;6.250;2023-01-25T06:59:16;103430.56;;;1.85;76.61
39773;BME280;25451;51.960;6.250;2023-01-25T07:01:41;103421.53;;;1.84;76.69
39773;BME280;25451;51.960;6.250;2023-01-25T07:04:08;103418.94;;;1.83;76.87
39773;BME280;25451;51.960;6.250;2023-01-25T07:06:35;103417.94;;;1.84;77.03
39773;BME280;25451;51.960;6.250;2023-01-25T07:09:06;103416.22;;;1.83;76.87
39773;BME280;25451;51.960;6.250;2023-01-25T07:11:32;103411.75;;;1.82;76.75
39773;BME280;25451;51.960;6.250;2023-01-25T07:13:58;103418.56;;;1.76;76.70
39773;BME280;25451;51.960;6.250;2023-01-25T07:16:24;103416.84;;;1.75;76.74
39773;BME280;25451;51.960;6.250;2023-01-25T07:18:49;103412.50;;;1.73;77.09
39773;BME280;25451;51.960;6.250;2023-01-25T07:21:20;103421.41;;;1.75;77.00
39773;BME280;25451;51.960;6.250;2023-01-25T07:23:46;103417.94;;;1.73;77.13
39773;BME280;25451;51.960;6.250;2023-01-25T07:26:21;103418.81;;;1.73;76.94
39773;BME280;25451;51.960;6.250;2023-01-25T07:28:47;103426.13;;;1.73;76.65
39773;BME280;25451;51.960;6.250;2023-01-25T07:31:14;103411.63;;;1.72;77.04
39773;BME280;25451;51.960;6.250;2023-01-25T07:33:40;103412.59;;;1.71;76.95
39773;BME280;25451;51.960;6.250;2023-01-25T07:36:06;103398.25;;;1.69;76.74
39773;BME280;25451;51.960;6.250;2023-01-25T07:38:33;103406.06;;;1.74;76.90
39773;BME280;25451;51.960;6.250;2023-01-25T07:40:59;103395.44;;;1.71;76.68
39773;BME280;25451;51.960;6.250;2023-01-25T07:43:24;103396.16;;;1.73;76.72
39773;BME280;25451;51.960;6.250;2023-01-25T07:45:50;103406.19;;;1.72;76.82
39773;BME280;25451;51.960;6.250;2023-01-25T07:48:17;103391.81;;;1.70;76.96
39773;BME280;25451;51.960;6.250;2023-01-25T07:50:43;103410.00;;;1.69;76.65
39773;BME280;25451;51.960;6.250;2023-01-25T07:53:14;103401.84;;;1.69;76.68
39773;BME280;25451;51.960;6.250;2023-01-25T07:55:40;103398.25;;;1.69;77.02
39773;BME280;25451;51.960;6.250;2023-01-25T07:58:05;103404.56;;;1.69;76.69
39773;BME280;25451;51.960;6.250;2023-01-25T08:00:30;103399.38;;;1.66;76.71
39773;BME280;25451;51.960;6.250;2023-01-25T08:02:55;103393.81;;;1.68;76.55
39773;BME280;25451;51.960;6.250;2023-01-25T08:05:21;103394.69;;;1.68;76.72
39773;BME280;25451;51.960;6.250;2023-01-25T08:07:47;103385.66;;;1.68;76.55
39773;BME280;25451;51.960;6.250;2023-01-25T08:10:12;103388.22;;;1.69;76.89
39773;BME280;25451;51.960;6.250;2023-01-25T08:12:38;103390.94;;;1.69;76.87
39773;BME280;25451;51.960;6.250;2023-01-25T08:15:03;103391.22;;;1.66;76.96
39773;BME280;25451;51.960;6.250;2023-01-25T08:17:29;103386.53;;;1.68;76.80
39773;BME280;25451;51.960;6.250;2023-01-25T08:19:58;103379.47;;;1.66;76.80
39773;BME280;25451;51.960;6.250;2023-01-25T08:22:24;103375.63;;;1.68;76.70
39773;BME280;25451;51.960;6.250;2023-01-25T08:24:50;103385.50;;;1.69;76.93
39773;BME280;25451;51.960;6.250;2023-01-25T08:27:15;103378.59;;;1.65;76.89
39773;BME280;25451;51.960;6.250;2023-01-25T08:29:40;103379.19;;;1.69;76.83
39773;BME280;25451;51.960;6.250;2023-01-25T08:32:06;103380.81;;;1.72;76.67
39773;BME280;25451;51.960;6.250;2023-01-25T08:34:32;103380.94;;;1.70;76.65
39773;BME280;25451;51.960;6.250;2023-01-25T08:36:58;103383.66;;;1.70;77.02
39773;BME280;25451;51.960;6.250;2023-01-25T08:39:23;103387.25;;;1.71;76.49
39773;BME280;25451;51.960;6.250;2023-01-25T08:41:48;103377.34;;;1.69;76.98
39773;BME280;25451;51.960;6.250;2023-01-25T08:44:14;103376.22;;;1.72;76.37
39773;BME280;25451;51.960;6.250;2023-01-25T08:46:39;103381.81;;;1.71;76.68
39773;BME280;25451;51.960;6.250;2023-01-25T08:49:04;103375.63;;;1.68;76.61
39773;BME280;25451;51.960;6.250;2023-01-25T08:51:32;103378.34;;;1.68;76.85
39773;BME280;25451;51.960;6.250;2023-01-25T08:54:05;103360.41;;;1.66;76.35
39773;BME280;25451;51.960;6.250;2023-01-25T08:56:31;103367.47;;;1.68;76.58
39773;BME280;25451;51.960;6.250;2023-01-25T08:58:57;103368.44;;;1.67;76.63
39773;BME280;25451;51.960;6.250;2023-01-25T09:01:22;103361.28;;;1.66;76.59
39773;BME280;25451;51.960;6.250;2023-01-25T09:03:49;103354.81;;;1.67;76.91
39773;BME280;25451;51.960;6.250;2023-01-25T09:06:15;103353.09;;;1.66;76.43
39773;BME280;25451;51.960;6.250;2023-01-25T09:08:41;103350.63;;;1.63;76.86
39773;BME280;25451;51.960;6.250;2023-01-25T09:11:09;103347.03;;;1.63;76.64
39773;BME280;25451;51.960;6.250;2023-01-25T09:13:35;103350.47;;;1.65;76.86
39773;BME280;25451;51.960;6.250;2023-01-25T09:16:06;103351.34;;;1.65;76.63
39773;BME280;25451;51.960;6.250;2023-01-25T09:18:33;103351.34;;;1.65;76.62
39773;BME280;25451;51.960;6.250;2023-01-25T09:21:04;103349.66;;;1.64;76.54
39773;BME280;25451;51.960;6.250;2023-01-25T09:23:30;103347.66;;;1.66;76.85
39773;BME280;25451;51.960;6.250;2023-01-25T09:25:57;103345.78;;;1.67;76.76
39773;BME280;25451;51.960;6.250;2023-01-25T09:28:23;103343.94;;;1.67;76.74
39773;BME280;25451;51.960;6.250;2023-01-25T09:30:56;103345.69;;;1.68;76.53
39773;BME280;25451;51.960;6.250;2023-01-25T09:33:32;103334.91;;;1.67;76.37
39773;BME280;25451;51.960;6.250;2023-01-25T09:35:58;103344.94;;;1.66;76.69
39773;BME280;25451;51.960;6.250;2023-01-25T09:38:23;103327.50;;;1.58;76.77
39773;BME280;25451;51.960;6.250;2023-01-25T09:46:50;103344.44;;;1.61;76.63
39773;BME280;25451;51.960;6.250;2023-01-25T09:54:44;103342.22;;;1.55;76.42
39773;BME280;25451;51.960;6.250;2023-01-25T09:57:20;103338.75;;;1.53;76.25
39773;BME280;25451;51.960;6.250;2023-01-25T09:59:49;103335.16;;;1.53;76.86
39773;BME280;25451;51.960;6.250;2023-01-25T10:04:51;103327.88;;;1.53;76.66
39773;BME280;25451;51.960;6.250;2023-01-25T10:07:22;103332.06;;;1.57;76.65
39773;BME280;25451;51.960;6.250;2023-01-25T10:10:03;103332.81;;;1.59;76.76
39773;BME280;25451;51.960;6.250;2023-01-25T10:12:34;103332.81;;;1.59;76.79
39773;BME280;25451;51.960;6.250;2023-01-25T10:15:00;103322.94;;;1.58;76.92
39773;BME280;25451;51.960;6.250;2023-01-25T10:25:42;103322.44;;;1.64;76.43
39773;BME280;25451;51.960;6.250;2023-01-25T10:28:23;103322.28;;;1.66;76.57
39773;BME280;25451;51.960;6.250;2023-01-25T10:30:57;103315.84;;;1.67;76.43
39773;BME280;25451;51.960;6.250;2023-01-25T10:33:25;103297.66;;;1.67;76.38
39773;BME280;25451;51.960;6.250;2023-01-25T10:35:51;103298.66;;;1.66;76.28
39773;BME280;25451;51.960;6.250;2023-01-25T10:38:30;103290.22;;;1.69;76.39
39773;BME280;25451;51.960;6.250;2023-01-25T10:41:06;103289.34;;;1.69;76.10
39773;BME280;25451;51.960;6.250;2023-01-25T10:43:32;103279.34;;;1.69;76.26
39773;BME280;25451;51.960;6.250;2023-01-25T10:45:57;103282.78;;;1.72;76.27
39773;BME280;25451;51.960;6.250;2023-01-25T10:48:29;103270.19;;;1.71;76.04
39773;BME280;25451;51.960;6.250;2023-01-25T10:50:57;103261.16;;;1.70;76.46
39773;BME280;25451;51.960;6.250;2023-01-25T11:00:56;103256.81;;;1.79;76.33
39773;BME280;25451;51.960;6.250;2023-01-25T11:03:21;103239.47;;;1.80;76.41
39773;BME280;25451;51.960;6.250;2023-01-25T11:05:54;103228.31;;;1.83;76.10
39773;BME280;25451;51.960;6.250;2023-01-25T11:08:24;103219.16;;;1.84;76.05
39773;BME280;25451;51.960;6.250;2023-01-25T11:10:50;103209.13;;;1.84;76.32
39773;BME280;25451;51.960;6.250;2023-01-25T11:18:33;103212.06;;;1.92;76.19
39773;BME280;25451;51.960;6.250;2023-01-25T11:23:39;103199.03;;;1.96;76.03
39773;BME280;25451;51.960;6.250;2023-01-25T11:28:37;103176.81;;;1.91;76.19
39773;BME280;25451;51.960;6.250;2023-01-25T11:31:02;103175.25;;;1.98;76.31
39773;BME280;25451;51.960;6.250;2023-01-25T11:33:28;103158.91;;;1.98;76.19
39773;BME280;25451;51.960;6.250;2023-01-25T11:36:15;103168.56;;;2.02;76.15
39773;BME280;25451;51.960;6.250;2023-01-25T11:38:56;103159.41;;;2.03;76.00
39773;BME280;25451;51.960;6.250;2023-01-25T11:41:47;103161.13;;;2.04;76.16
39773;BME280;25451;51.960;6.250;2023-01-25T11:47:20;103146.50;;;2.05;76.21
39773;BME280;25451;51.960;6.250;2023-01-25T11:55:46;103135.47;;;2.06;75.77
39773;BME280;25451;51.960;6.250;2023-01-25T11:58:28;103107.47;;;1.95;76.22
39773;BME280;25451;51.960;6.250;2023-01-25T12:04:13;103118.16;;;2.07;76.10
39773;BME280;25451;51.960;6.250;2023-01-25T12:07:00;103102.53;;;2.09;76.10
39773;BME280;25451;51.960;6.250;2023-01-25T12:09:44;103093.50;;;2.09;76.12
39773;BME280;25451;51.960;6.250;2023-01-25T12:12:30;103103.28;;;2.11;75.85
39773;BME280;25451;51.960;6.250;2023-01-25T12:16:18;103082.31;;;2.12;76.50
39773;BME280;25451;51.960;6.250;2023-01-25T12:21:02;103063.97;;;2.14;76.25
39773;BME280;25451;51.960;6.250;2023-01-25T12:23:35;103049.38;;;2.15;76.26
39773;BME280;25451;51.960;6.250;2023-01-25T12:26:17;103044.78;;;2.15;76.16
39773;BME280;25451;51.960;6.250;2023-01-25T12:28:49;103042.19;;;2.14;76.11
39773;BME280;25451;51.960;6.250;2023-01-25T12:33:58;103031.19;;;2.15;76.37
39773;BME280;25451;51.960;6.250;2023-01-25T12:36:42;103022.72;;;2.18;76.03
39773;BME280;25451;51.960;6.250;2023-01-25T12:39:15;103021.72;;;2.19;76.33
39773;BME280;25451;51.960;6.250;2023-01-25T12:44:37;103005.53;;;2.18;76.29
39773;BME280;25451;51.960;6.250;2023-01-25T12:47:23;103002.81;;;2.18;76.32
39773;BME280;25451;51.960;6.250;2023-01-25T12:49:53;103001.94;;;2.17;76.15
39773;BME280;25451;51.960;6.250;2023-01-25T12:54:49;102993.03;;;2.15;76.26
39773;BME280;25451;51.960;6.250;2023-01-25T12:57:22;102990.88;;;2.19;76.49
39773;BME280;25451;51.960;6.250;2023-01-25T12:59:58;102978.13;;;2.19;76.25
39773;BME280;25451;51.960;6.250;2023-01-25T13:02:45;102983.44;;;2.21;76.58
39773;BME280;25451;51.960;6.250;2023-01-25T13:08:16;102984.31;;;2.21;76.39
39773;BME280;25451;51.960;6.250;2023-01-25T13:10:49;102973.41;;;2.21;76.24
39773;BME280;25451;51.960;6.250;2023-01-25T13:13:23;102971.81;;;2.19;76.11
39773;BME280;25451;51.960;6.250;2023-01-25T13:15:49;102961.66;;;2.21;76.16
39773;BME280;25451;51.960;6.250;2023-01-25T13:20:59;102964.09;;;2.24;76.33
39773;BME280;25451;51.960;6.250;2023-01-25T13:23:41;102954.19;;;2.23;76.46
39773;BME280;25451;51.960;6.250;2023-01-25T13:27:22;102960.50;;;2.23;76.22
39773;BME280;25451;51.960;6.250;2023-01-25T13:32:01;102941.84;;;2.19;76.41
39773;BME280;25451;51.960;6.250;2023-01-25T13:37:18;102921.78;;;2.20;76.31
39773;BME280;25451;51.960;6.250;2023-01-25T13:39:58;102928.94;;;2.21;76.27
39773;BME280;25451;51.960;6.250;2023-01-25T13:42:26;102918.06;;;2.21;76.16
39773;BME280;25451;51.960;6.250;2023-01-25T13:44:58;102896.81;;;2.15;75.89
39773;BME280;25451;51.960;6.250;2023-01-25T13:47:32;102915.34;;;2.21;76.02
39773;BME280;25451;51.960;6.250;2023-01-25T13:50:21;102920.94;;;2.19;76.08
39773;BME280;25451;51.960;6.250;2023-01-25T13:53:15;102918.06;;;2.21;76.21
39773;BME280;25451;51.960;6.250;2023-01-25T13:55:53;102913.63;;;2.20;76.30
39773;BME280;25451;51.960;6.250;2023-01-25T13:58:27;102913.03;;;2.16;76.37
39773;BME280;25451;51.960;6.250;2023-01-25T14:00:55;102908.59;;;2.15;76.42
39773;BME280;25451;51.960;6.250;2023-01-25T14:03:25;102924.53;;;2.20;76.20
39773;BME280;25451;51.960;6.250;2023-01-25T14:05:54;102919.34;;;2.17;76.14
39773;BME280;25451;51.960;6.250;2023-01-25T14:08:20;102908.84;;;2.12;76.34
39773;BME280;25451;51.960;6.250;2023-01-25T14:10:47;102919.19;;;2.18;76.26
39773;BME280;25451;51.960;6.250;2023-01-25T14:13:14;102901.41;;;2.14;76.49
39773;BME280;25451;51.960;6.250;2023-01-25T14:15:53;102903.00;;;2.17;76.35
39773;BME280;25451;51.960;6.250;2023-01-25T14:18:21;102903.00;;;2.17;76.35
39773;BME280;25451;51.960;6.250;2023-01-25T14:20:49;102896.25;;;2.11;76.12
39773;BME280;25451;51.960;6.250;2023-01-25T14:23:44;102913.75;;;2.18;76.24
39773;BME280;25451;51.960;6.250;2023-01-25T14:26:26;102907.47;;;2.18;76.27
39773;BME280;25451;51.960;6.250;2023-01-25T14:28:54;102902.00;;;2.18;76.38
39773;BME280;25451;51.960;6.250;2023-01-25T14:31:23;102903.72;;;2.19;76.53